Terminal Aerodrome Forecast
Issued by NWS Nashville, TN

Home | Current Version | Previous Version | Text Only | Print | Product List | Glossary On
Versions: 1 2 3 4 5 6 7 8 9 10 11 12 13 14 15 16 17 18 19 20 21 22 23 24 25 26 27 28 29 30 31 32 33 34 35 36 37 38 39 40 41 42 43
330
FTUS44 KOHX 300901 AAB
TAFCSV
TAF AMD
KCSV 300901Z 3009/3106 00000KT 2SM BR SCT001
      TEMPO 3009/3012 1/4SM FG VV001
     FM301300 27004KT P6SM BKN200
     FM301800 27006KT P6SM VCTS BKN050CB BKN200
     FM310200 24003KT P6SM BKN200=

USA.gov is the U.S. government's official web portal to all federal, state and local government web resources and services.